KCMX

Houghton County Memorial Airport

Hancock, Michigan, USA
METAR KCMX 231411Z AUTO 08006KT 1 3/4SM -SN BR FEW008 BKN018 OVC075 M03/M06 A2996 RMK AO2 P0000 T10331056
Observed Flight Rules
Feb-23 @ 14:11 UTC (14 minutes ago) Instrument Flight Rules
Wind Visibility Clouds Conditions
80° at 6 knots 1 3/4 miles
  • Few at 800' AGL
  • Broken at 1,800' AGL
  • Overcast at 7,500' AGL
  • Light Snow
  • Mist
Temperatures Readings Precipitation
Current -3°C / 27°F
Dewpoint -6°C / 21°F
Humidity 80%
Altimeter 29.96" Hg
Pressure 1015 hPa
Elevation 326
Current Rain 0.005
METAR KCMX 231411Z AUTO 08006KT 1 3/4SM -SN BR FEW008 BKN018 OVC075 M03/M06 A2996 RMK AO2 P0000 T10331056
Observed Flight Rules
Feb-23 @ 14:11 UTC
(14 minutes ago)
IFR
Wind Visibility
80° at 6 knots 1 3/4 miles
Clouds
  • Few at 800' AGL
  • Broken at 1,800' AGL
  • Overcast at 7,500' AGL
Conditions
  • Light Snow
  • Mist
Temperature Dewpoint
-3°C / 27°F -6°C / 21°F
Humidity Altimeter Pressure
80% 29.96" Hg 1015 hPa
Current Rain
0.005